Terminal Aerodrome Forecast
Issued by NWS

Home | Current Version | Previous Version | Text Only | Print | Product List | Glossary On
Versions: 1 2 3 4 5 6 7 8 9 10 11 12 13 14 15 16 17
000
FTUS44 KCRP 022000 AAA
TAFALI
TAF AMD
KALI 022007Z 0220/0318 13014G20KT P6SM VCSH SCT035
      TEMPO 0220/0224 6SM TSRA BR SCT040CB
     FM030100 12010KT P6SM SCT020 BKN150
     FM030900 13005KT P6SM BKN020 BKN150
     FM031400 13013KT P6SM VCSH SCT035 SCT150=

USA.gov is the U.S. government's official web portal to all federal, state and local government web resources and services.